createdAt,value
2019-02-28T00:01:17.013Z,17.07
2019-02-28T00:03:48.084Z,19.07
2019-02-28T00:06:21.975Z,17.50
2019-02-28T00:08:55.663Z,17.87
2019-02-28T00:11:26.903Z,18.53
2019-02-28T00:14:03.653Z,14.53
2019-02-28T00:16:35.668Z,17.30
2019-02-28T00:19:14.184Z,16.53
2019-02-28T00:21:40.650Z,16.40
2019-02-28T00:24:19.834Z,18.40
2019-02-28T00:26:52.495Z,27.77
2019-02-28T00:29:23.511Z,21.57
2019-02-28T00:31:56.345Z,18.80
2019-02-28T00:34:30.131Z,19.50
2019-02-28T00:36:59.521Z,16.90
2019-02-28T00:39:31.372Z,17.03
2019-02-28T00:42:17.315Z,20.60
2019-02-28T00:44:50.299Z,15.83
2019-02-28T00:47:38.806Z,13.50
2019-02-28T00:50:14.334Z,14.70
2019-02-28T00:52:46.463Z,13.10
2019-02-28T00:55:19.106Z,16.47
2019-02-28T00:57:55.438Z,12.33
2019-02-28T01:00:28.765Z,10.70
2019-02-28T01:03:02.575Z,12.17
2019-02-28T01:05:36.569Z,16.00
2019-02-28T01:08:13.093Z,13.20
2019-02-28T01:10:48.549Z,11.03
2019-02-28T01:13:27.251Z,10.23
2019-02-28T01:15:53.459Z,8.63
2019-02-28T01:18:24.674Z,11.63
2019-02-28T01:21:04.225Z,7.80
2019-02-28T01:23:33.684Z,16.33
2019-02-28T01:26:08.086Z,33.93
2019-02-28T01:28:42.169Z,46.13
2019-02-28T01:31:14.903Z,64.30
2019-02-28T01:33:52.502Z,31.13
2019-02-28T01:36:25.794Z,39.27
2019-02-28T01:38:58.821Z,20.43
2019-02-28T01:41:29.998Z,50.47
2019-02-28T01:44:03.803Z,31.90
2019-02-28T01:46:36.514Z,18.73
2019-02-28T01:49:10.430Z,17.83
2019-02-28T01:51:41.498Z,19.80
2019-02-28T01:54:10.910Z,15.10
2019-02-28T01:56:40.356Z,13.37
2019-02-28T01:59:09.808Z,18.27
2019-02-28T02:01:40.723Z,13.80
2019-02-28T02:04:12.570Z,15.10
2019-02-28T02:06:42.728Z,12.97
2019-02-28T02:09:12.178Z,13.30
2019-02-28T02:11:41.582Z,12.37
2019-02-28T02:14:11.798Z,14.03
2019-02-28T02:16:43.035Z,15.03
2019-02-28T02:19:18.567Z,14.60
2019-02-28T02:22:02.076Z,14.90
2019-02-28T02:24:31.439Z,15.87
2019-02-28T02:27:03.510Z,15.90
2019-02-28T02:29:36.317Z,16.77
2019-02-28T02:32:04.034Z,15.00
2019-02-28T02:34:33.402Z,13.67
2019-02-28T02:37:04.773Z,13.57
2019-02-28T02:39:35.881Z,14.17
2019-02-28T02:42:09.967Z,14.33
2019-02-28T02:44:36.069Z,14.40
2019-02-28T02:47:05.440Z,16.33
2019-02-28T02:49:35.213Z,14.73
2019-02-28T02:52:04.567Z,12.57
2019-02-28T02:54:33.949Z,11.80
2019-02-28T02:57:03.308Z,14.40
2019-02-28T02:59:38.924Z,13.53
2019-02-28T03:02:07.010Z,12.53
2019-02-28T03:04:36.480Z,13.00
2019-02-28T03:07:07.989Z,12.57
2019-02-28T03:09:43.583Z,14.00
2019-02-28T03:12:18.233Z,15.93
2019-02-28T03:14:53.970Z,51.10
2019-02-28T03:17:23.373Z,28.00
2019-02-28T03:19:52.744Z,30.33
2019-02-28T03:22:28.331Z,43.13
2019-02-28T03:24:53.260Z,41.67
2019-02-28T03:27:22.711Z,35.50
2019-02-28T03:29:52.224Z,31.20
2019-02-28T03:32:23.342Z,22.40
2019-02-28T03:34:57.854Z,23.77
2019-02-28T03:37:23.902Z,16.83
2019-02-28T03:40:02.417Z,18.80
2019-02-28T03:42:28.556Z,20.63
2019-02-28T03:44:57.110Z,17.53
2019-02-28T03:47:26.704Z,13.27
2019-02-28T03:49:59.553Z,13.50
2019-02-28T03:52:28.979Z,19.10
2019-02-28T03:55:03.392Z,15.07
2019-02-28T03:57:29.753Z,19.20
2019-02-28T03:59:59.422Z,16.17
2019-02-28T04:02:28.825Z,18.60
2019-02-28T04:04:58.305Z,16.67
2019-02-28T04:07:27.772Z,46.63
2019-02-28T04:09:57.157Z,15.73
2019-02-28T04:12:26.620Z,15.10
2019-02-28T04:14:56.017Z,16.77
2019-02-28T04:17:30.075Z,17.90
2019-02-28T04:20:00.135Z,14.37
2019-02-28T04:22:27.571Z,15.07
2019-02-28T04:24:56.974Z,14.57
2019-02-28T04:27:26.339Z,13.43
2019-02-28T04:29:55.721Z,16.97
2019-02-28T04:32:27.666Z,18.07
2019-02-28T04:34:56.341Z,21.13
2019-02-28T04:37:25.760Z,14.43
2019-02-28T04:39:55.110Z,18.43
2019-02-28T04:42:24.494Z,17.27
2019-02-28T04:44:53.860Z,17.10
2019-02-28T04:47:23.248Z,20.47
2019-02-28T04:49:53.516Z,17.63
2019-02-28T04:52:23.708Z,16.37
2019-02-28T04:54:53.091Z,15.27
2019-02-28T04:57:22.470Z,14.73
2019-02-28T04:59:51.872Z,17.63
2019-02-28T05:02:21.187Z,18.13
2019-02-28T05:04:50.575Z,15.93
2019-02-28T05:07:19.961Z,16.67
2019-02-28T05:09:49.489Z,18.97
2019-02-28T05:12:18.844Z,18.83
2019-02-28T05:14:48.229Z,19.73
2019-02-28T05:17:19.358Z,20.57
2019-02-28T05:19:48.813Z,17.83
2019-02-28T05:22:18.195Z,22.63
2019-02-28T05:24:47.635Z,20.23
2019-02-28T05:27:17.090Z,18.87
2019-02-28T05:29:46.520Z,18.77
2019-02-28T05:32:15.967Z,21.80
2019-02-28T05:34:47.396Z,22.60
2019-02-28T05:37:16.419Z,25.57
2019-02-28T05:39:45.884Z,23.60
2019-02-28T05:42:15.284Z,24.87
2019-02-28T05:44:44.688Z,24.13
2019-02-28T05:47:16.050Z,26.47
2019-02-28T05:49:47.995Z,22.63
2019-02-28T05:52:17.406Z,22.80
2019-02-28T05:54:47.304Z,22.23
2019-02-28T05:57:18.017Z,23.43
2019-02-28T05:59:47.500Z,25.00
2019-02-28T06:02:18.945Z,23.57
2019-02-28T06:04:48.074Z,21.57
2019-02-28T06:07:17.462Z,22.20
2019-02-28T06:09:48.681Z,20.63
2019-02-28T06:12:18.275Z,28.20
2019-02-28T06:14:47.752Z,30.07
2019-02-28T06:17:20.395Z,26.17
2019-02-28T06:19:48.323Z,29.03
2019-02-28T06:22:17.767Z,29.63
2019-02-28T06:24:47.178Z,37.67
2019-02-28T06:27:19.468Z,25.53
2019-02-28T06:29:48.872Z,27.63
2019-02-28T06:32:23.107Z,27.17
2019-02-28T06:34:49.374Z,27.73
2019-02-28T06:37:19.817Z,27.60
2019-02-28T06:39:49.212Z,26.80
2019-02-28T06:42:18.935Z,26.70
2019-02-28T06:44:48.320Z,29.50
2019-02-28T06:47:17.722Z,22.37
2019-02-28T06:49:47.120Z,24.83
2019-02-28T06:52:16.517Z,23.83
2019-02-28T06:54:47.536Z,24.37
2019-02-28T06:57:17.013Z,32.80
2019-02-28T06:59:46.535Z,30.87
2019-02-28T07:02:18.649Z,26.57
2019-02-28T07:04:49.479Z,25.77
2019-02-28T07:07:20.783Z,31.33
2019-02-28T07:09:50.148Z,27.50
2019-02-28T07:12:19.601Z,29.97
2019-02-28T07:14:50.597Z,31.53
2019-02-28T07:17:20.045Z,30.83
2019-02-28T07:19:49.446Z,31.43
2019-02-28T07:22:19.633Z,35.20
2019-02-28T07:24:51.688Z,35.13
2019-02-28T07:27:23.402Z,39.93
2019-02-28T07:29:52.327Z,34.70
2019-02-28T07:32:21.773Z,30.70
2019-02-28T07:34:51.726Z,31.57
2019-02-28T07:37:21.266Z,33.33
2019-02-28T07:39:50.724Z,34.40
2019-02-28T07:42:21.803Z,25.70
2019-02-28T07:44:53.664Z,21.87
2019-02-28T07:47:22.359Z,23.40
2019-02-28T07:49:51.796Z,24.20
2019-02-28T07:52:21.267Z,22.57
2019-02-28T07:54:51.818Z,23.20
2019-02-28T07:57:22.506Z,37.37
2019-02-28T07:59:52.074Z,28.73
2019-02-28T08:02:21.492Z,33.10
2019-02-28T08:04:54.274Z,27.93
2019-02-28T08:07:21.970Z,25.57
2019-02-28T08:09:51.387Z,28.03
2019-02-28T08:12:21.332Z,36.73
2019-02-28T08:14:52.870Z,29.00
2019-02-28T08:17:23.933Z,24.37
2019-02-28T08:19:54.145Z,28.73
2019-02-28T08:22:25.038Z,28.87
2019-02-28T08:24:56.266Z,35.00
2019-02-28T08:27:26.255Z,31.53
2019-02-28T08:29:55.781Z,32.70
2019-02-28T08:32:25.239Z,31.13
2019-02-28T08:34:55.527Z,30.63
2019-02-28T08:37:25.802Z,35.73
2019-02-28T08:39:55.567Z,33.00
2019-02-28T08:42:24.923Z,30.60
2019-02-28T08:44:57.787Z,33.53
2019-02-28T08:47:25.462Z,32.60
2019-02-28T08:49:54.897Z,40.50
2019-02-28T08:52:24.342Z,32.13
2019-02-28T08:54:53.720Z,33.90
2019-02-28T08:57:25.586Z,31.50
2019-02-28T08:59:56.255Z,37.33
2019-02-28T09:02:25.334Z,38.30
2019-02-28T09:04:54.705Z,32.83
2019-02-28T09:07:24.106Z,28.63
2019-02-28T09:09:53.483Z,26.83
2019-02-28T09:12:22.909Z,32.07
2019-02-28T09:14:55.423Z,30.13
2019-02-28T09:17:23.451Z,28.70
2019-02-28T09:19:52.835Z,31.30
2019-02-28T09:22:26.862Z,29.27
2019-02-28T09:24:53.322Z,34.60
2019-02-28T09:27:22.706Z,40.93
2019-02-28T09:29:54.651Z,36.00
2019-02-28T09:32:23.242Z,34.47
2019-02-28T09:34:52.648Z,42.43
2019-02-28T09:37:22.016Z,36.50
2019-02-28T09:39:54.265Z,38.33
2019-02-28T09:42:22.516Z,48.80
2019-02-28T09:44:51.970Z,59.40
2019-02-28T09:47:23.345Z,44.93
2019-02-28T09:49:52.424Z,52.60
2019-02-28T09:52:22.836Z,75.27
2019-02-28T09:54:52.341Z,44.50
2019-02-28T09:57:22.628Z,45.03
2019-02-28T09:59:52.154Z,33.07
2019-02-28T10:02:21.616Z,76.53
2019-02-28T10:04:50.987Z,54.93
2019-02-28T10:07:23.352Z,57.37
2019-02-28T10:09:51.471Z,36.30
2019-02-28T10:12:20.942Z,50.07
2019-02-28T10:14:52.001Z,37.43
2019-02-28T10:17:22.731Z,40.97
2019-02-28T10:19:53.051Z,33.73
2019-02-28T10:22:22.697Z,35.80
2019-02-28T10:24:52.165Z,46.83
2019-02-28T10:27:23.235Z,37.80
2019-02-28T10:29:52.691Z,36.77
2019-02-28T10:32:22.122Z,43.23
2019-02-28T10:34:51.628Z,38.53
2019-02-28T10:37:22.822Z,38.63
2019-02-28T10:39:52.161Z,46.83
2019-02-28T10:42:21.678Z,34.63
2019-02-28T10:44:51.265Z,39.80
2019-02-28T10:47:21.433Z,41.83
2019-02-28T10:49:50.913Z,41.90
2019-02-28T10:52:23.487Z,38.10
2019-02-28T10:54:51.837Z,40.43
2019-02-28T10:57:21.267Z,43.83
2019-02-28T10:59:50.667Z,47.30
2019-02-28T11:02:20.139Z,46.87
2019-02-28T11:04:49.609Z,42.37
2019-02-28T11:07:19.166Z,48.33
2019-02-28T11:09:48.717Z,41.47
2019-02-28T11:12:20.325Z,36.90
2019-02-28T11:14:49.287Z,36.67
2019-02-28T11:17:18.757Z,36.40
2019-02-28T11:19:48.494Z,35.40
2019-02-28T11:22:19.317Z,38.47
2019-02-28T11:24:48.867Z,36.03
2019-02-28T11:27:19.583Z,34.80
2019-02-28T11:29:49.476Z,37.97
2019-02-28T11:32:19.711Z,52.83
2019-02-28T11:34:49.341Z,37.00
2019-02-28T11:37:19.015Z,36.57
2019-02-28T11:39:48.563Z,32.13
2019-02-28T11:42:18.008Z,32.53
2019-02-28T11:44:47.718Z,29.23
2019-02-28T11:47:17.654Z,30.33
2019-02-28T11:49:47.701Z,33.00
2019-02-28T11:52:17.674Z,29.48
2019-02-28T11:54:47.718Z,28.95
2019-02-28T11:57:17.715Z,28.38
2019-02-28T12:00:00.592Z,35.10
2019-02-28T12:02:31.828Z,31.87
2019-02-28T12:05:01.915Z,28.12
2019-02-28T12:07:34.579Z,28.98
2019-02-28T12:10:05.108Z,29.75
2019-02-28T12:12:35.076Z,29.42
2019-02-28T12:15:20.154Z,30.95
2019-02-28T12:17:50.418Z,27.63
2019-02-28T12:20:25.785Z,20.13
2019-02-28T12:22:51.175Z,23.57
2019-02-28T12:25:21.918Z,22.17
2019-02-28T12:27:51.959Z,22.90
2019-02-28T12:30:25.204Z,19.62
2019-02-28T12:32:56.074Z,19.48
2019-02-28T12:35:26.207Z,24.23
2019-02-28T12:37:56.132Z,26.87
2019-02-28T12:40:31.357Z,24.00
2019-02-28T12:43:01.581Z,25.57
2019-02-28T12:45:34.333Z,23.40
2019-02-28T12:48:04.426Z,25.43
2019-02-28T12:50:34.474Z,24.30
2019-02-28T12:53:04.883Z,24.98
2019-02-28T12:55:35.403Z,18.95
2019-02-28T12:58:06.607Z,21.25
2019-02-28T13:00:39.839Z,19.32
2019-02-28T13:03:10.283Z,21.07
2019-02-28T13:05:39.756Z,59.57
2019-02-28T13:08:09.198Z,22.57
2019-02-28T13:10:38.647Z,23.10
2019-02-28T13:13:08.167Z,21.47
2019-02-28T13:15:37.696Z,21.83
2019-02-28T13:18:09.200Z,26.73
2019-02-28T13:20:40.999Z,21.27
2019-02-28T13:23:10.403Z,23.27
2019-02-28T13:25:39.879Z,23.60
2019-02-28T13:28:10.633Z,23.13
2019-02-28T13:30:49.140Z,23.80
2019-02-28T13:33:15.005Z,27.23
2019-02-28T13:35:47.105Z,24.13
2019-02-28T13:38:19.262Z,23.73
2019-02-28T13:40:45.951Z,26.77
2019-02-28T13:43:20.934Z,22.27
2019-02-28T13:45:46.546Z,23.33
2019-02-28T13:48:25.359Z,26.33
2019-02-28T13:50:47.080Z,26.57
2019-02-28T13:53:17.694Z,26.07
2019-02-28T13:55:47.644Z,27.80
2019-02-28T13:58:17.604Z,31.40
2019-02-28T14:00:48.264Z,26.40
2019-02-28T14:03:17.671Z,26.97
2019-02-28T14:05:47.217Z,31.40
2019-02-28T14:08:16.663Z,26.27
2019-02-28T14:10:46.872Z,28.23
2019-02-28T14:13:16.253Z,29.93
2019-02-28T14:15:47.932Z,29.57
2019-02-28T14:18:18.242Z,25.33
2019-02-28T14:20:49.149Z,29.77
2019-02-28T14:23:20.698Z,31.17
2019-02-28T14:25:50.027Z,28.47
2019-02-28T14:28:19.391Z,28.20
2019-02-28T14:30:48.857Z,28.70
2019-02-28T14:33:19.376Z,30.70
2019-02-28T14:35:49.513Z,28.53
2019-02-28T14:38:19.558Z,28.70
2019-02-28T14:40:49.688Z,29.57
2019-02-28T14:43:20.744Z,28.00
2019-02-28T14:45:50.432Z,28.43
2019-02-28T14:48:19.916Z,28.30
2019-02-28T14:50:50.663Z,30.43
2019-02-28T14:53:22.035Z,30.30
2019-02-28T14:55:51.754Z,28.70
2019-02-28T14:58:22.438Z,29.60
2019-02-28T15:00:51.991Z,33.00
2019-02-28T15:03:21.711Z,29.03
2019-02-28T15:05:52.411Z,27.37
2019-02-28T15:08:22.298Z,33.93
2019-02-28T15:10:53.191Z,31.43
2019-02-28T15:13:22.743Z,30.80
2019-02-28T15:15:54.488Z,31.77
2019-02-28T15:18:23.882Z,32.67
2019-02-28T15:20:53.326Z,33.83
2019-02-28T15:23:22.707Z,32.63
2019-02-28T15:25:54.211Z,30.50
2019-02-28T15:28:23.254Z,32.63
2019-02-28T15:30:52.733Z,34.43
2019-02-28T15:33:30.593Z,37.37
2019-02-28T15:36:02.412Z,33.63
2019-02-28T15:38:31.798Z,36.53
2019-02-28T15:41:01.274Z,38.13
2019-02-28T15:43:30.650Z,32.90
2019-02-28T15:46:00.043Z,34.97
2019-02-28T15:48:31.370Z,39.50
2019-02-28T15:51:00.706Z,38.73
2019-02-28T15:53:30.096Z,42.70
2019-02-28T15:55:59.464Z,43.77
2019-02-28T15:58:28.869Z,44.40
2019-02-28T16:00:58.355Z,38.47
2019-02-28T16:03:27.842Z,44.13
2019-02-28T16:05:57.284Z,44.97
2019-02-28T16:08:28.354Z,39.27
2019-02-28T16:10:58.745Z,37.50
2019-02-28T16:13:28.130Z,35.30
2019-02-28T16:15:57.517Z,32.60
2019-02-28T16:18:26.926Z,34.57
2019-02-28T16:20:56.378Z,28.27
2019-02-28T16:23:27.563Z,32.23
2019-02-28T16:25:56.999Z,27.13
2019-02-28T16:28:26.451Z,18.70
2019-02-28T16:30:55.929Z,20.33
2019-02-28T16:33:25.516Z,17.80
2019-02-28T16:35:55.122Z,28.10
2019-02-28T16:38:24.576Z,14.90
2019-02-28T16:40:53.989Z,16.07
2019-02-28T16:43:23.415Z,13.97
2019-02-28T16:45:52.841Z,14.87
2019-02-28T16:48:22.362Z,13.33
2019-02-28T16:50:53.685Z,13.23
2019-02-28T16:53:23.807Z,13.70
2019-02-28T16:55:53.522Z,11.20
2019-02-28T16:58:24.262Z,11.30
2019-02-28T17:00:53.670Z,10.87
2019-02-28T17:03:23.027Z,12.53
2019-02-28T17:05:52.414Z,11.93
2019-02-28T17:08:21.880Z,11.73
2019-02-28T17:10:51.259Z,11.87
2019-02-28T17:13:24.977Z,11.97
2019-02-28T17:16:01.451Z,14.77
2019-02-28T17:18:40.536Z,11.97
2019-02-28T17:21:16.712Z,13.90
2019-02-28T17:23:41.400Z,14.40
2019-02-28T17:26:13.279Z,16.60
2019-02-28T17:28:56.158Z,15.93
2019-02-28T17:31:36.703Z,13.90
2019-02-28T17:34:06.320Z,13.50
2019-02-28T17:36:35.776Z,17.43
2019-02-28T17:39:06.940Z,22.70
2019-02-28T17:41:37.843Z,19.50
2019-02-28T17:44:26.100Z,15.90
2019-02-28T17:47:07.296Z,16.00
2019-02-28T17:50:07.547Z,16.33
2019-02-28T17:53:03.315Z,17.33
2019-02-28T17:55:56.866Z,15.90
2019-02-28T17:58:53.611Z,15.97
2019-02-28T18:01:41.149Z,16.70
2019-02-28T18:04:30.370Z,17.43
2019-02-28T18:07:28.398Z,16.23
2019-02-28T18:10:09.687Z,18.63
2019-02-28T18:13:00.721Z,16.60
2019-02-28T18:15:53.241Z,19.17
2019-02-28T18:18:48.404Z,20.57
2019-02-28T18:21:32.973Z,17.33
2019-02-28T18:24:25.024Z,18.23
2019-02-28T18:27:23.305Z,20.67
2019-02-28T18:30:19.876Z,21.23
2019-02-28T18:32:49.315Z,20.70
2019-02-28T18:35:18.747Z,18.67
2019-02-28T18:37:48.203Z,20.60
2019-02-28T18:40:17.762Z,20.30
2019-02-28T18:42:47.333Z,16.87
2019-02-28T18:45:19.078Z,24.83
2019-02-28T18:47:48.039Z,22.20
2019-02-28T18:50:17.421Z,17.43
2019-02-28T18:52:49.607Z,22.13
2019-02-28T18:55:19.078Z,19.97
2019-02-28T18:57:48.663Z,18.07
2019-02-28T19:00:19.882Z,22.23
2019-02-28T19:02:49.470Z,22.43
2019-02-28T19:05:18.835Z,21.23
2019-02-28T19:07:48.276Z,21.27
2019-02-28T19:10:18.742Z,22.83
2019-02-28T19:12:48.485Z,24.93
2019-02-28T19:15:17.944Z,21.47
2019-02-28T19:17:47.277Z,17.67
2019-02-28T19:20:16.948Z,19.83
2019-02-28T19:22:46.368Z,19.33
2019-02-28T19:25:16.394Z,18.40
2019-02-28T19:27:45.950Z,22.80
2019-02-28T19:30:17.285Z,18.57
2019-02-28T19:32:46.662Z,19.20
2019-02-28T19:35:16.257Z,20.43
2019-02-28T19:37:45.727Z,21.67
2019-02-28T19:40:15.225Z,24.60
2019-02-28T19:42:44.596Z,22.33
2019-02-28T19:45:23.000Z,21.50
2019-02-28T19:47:52.398Z,23.17
2019-02-28T19:50:21.964Z,22.83
2019-02-28T19:52:51.470Z,26.60
2019-02-28T19:55:21.030Z,24.70
2019-02-28T19:57:50.483Z,22.83
2019-02-28T20:00:20.579Z,24.27
2019-02-28T20:02:50.012Z,26.00
2019-02-28T20:05:19.464Z,20.00
2019-02-28T20:07:48.876Z,24.57
2019-02-28T20:10:19.908Z,22.50
2019-02-28T20:12:49.367Z,22.53
2019-02-28T20:15:21.934Z,25.23
2019-02-28T20:17:51.351Z,23.37
2019-02-28T20:20:26.579Z,24.67
2019-02-28T20:22:59.520Z,26.10
2019-02-28T20:25:29.741Z,21.80
2019-02-28T20:27:59.341Z,24.90
2019-02-28T20:30:28.721Z,27.93
2019-02-28T20:32:58.247Z,27.17
2019-02-28T20:35:27.847Z,23.40
2019-02-28T20:37:58.058Z,25.40
2019-02-28T20:40:29.967Z,24.33
2019-02-28T20:42:59.549Z,27.23
2019-02-28T20:45:28.981Z,28.33
2019-02-28T20:47:58.379Z,26.33
2019-02-28T20:50:42.541Z,26.83
2019-02-28T20:53:13.635Z,24.57
2019-02-28T20:55:43.199Z,26.83
2019-02-28T20:58:12.711Z,27.37
2019-02-28T21:00:42.100Z,26.10
2019-02-28T21:03:11.478Z,26.23
2019-02-28T21:05:43.938Z,27.20
2019-02-28T21:08:14.962Z,26.57
2019-02-28T21:10:44.441Z,27.03
2019-02-28T21:13:13.826Z,24.43
2019-02-28T21:15:43.388Z,26.70
2019-02-28T21:18:12.836Z,23.07
2019-02-28T21:20:42.685Z,27.30
2019-02-28T21:23:12.029Z,22.83
2019-02-28T21:25:41.548Z,25.27
2019-02-28T21:28:10.962Z,25.13
2019-02-28T21:30:40.340Z,25.60
2019-02-28T21:33:09.748Z,22.60
2019-02-28T21:35:39.363Z,25.90
2019-02-28T21:38:08.845Z,25.33
2019-02-28T21:40:38.322Z,24.73
2019-02-28T21:43:08.190Z,23.60
2019-02-28T21:45:37.608Z,21.83
2019-02-28T21:48:07.006Z,23.97
2019-02-28T21:50:36.587Z,26.90
2019-02-28T21:53:05.986Z,21.23
2019-02-28T21:55:35.362Z,23.47
2019-02-28T21:58:04.830Z,24.27
2019-02-28T22:00:34.232Z,22.50
2019-02-28T22:03:03.610Z,21.50
2019-02-28T22:05:32.991Z,20.63
2019-02-28T22:08:02.384Z,24.87
2019-02-28T22:10:31.703Z,20.27
2019-02-28T22:13:01.126Z,25.03
2019-02-28T22:15:30.512Z,23.13
2019-02-28T22:17:59.907Z,25.07
2019-02-28T22:20:29.312Z,19.60
2019-02-28T22:22:58.684Z,21.40
2019-02-28T22:25:28.149Z,22.57
2019-02-28T22:27:57.540Z,24.63
2019-02-28T22:30:44.376Z,18.27
2019-02-28T22:33:24.429Z,21.10
2019-02-28T22:36:10.496Z,23.20
2019-02-28T22:38:41.542Z,24.73
2019-02-28T22:41:15.963Z,25.90
2019-02-28T22:43:45.475Z,19.90
2019-02-28T22:46:15.494Z,23.23
2019-02-28T22:48:44.888Z,21.33
2019-02-28T22:51:14.261Z,24.57
2019-02-28T22:53:43.689Z,29.13
2019-02-28T22:56:13.093Z,24.63
2019-02-28T22:58:42.558Z,20.87
2019-02-28T23:01:15.390Z,19.60
2019-02-28T23:03:46.348Z,22.97
2019-02-28T23:06:15.728Z,21.33
2019-02-28T23:08:45.409Z,27.63
2019-02-28T23:11:14.940Z,24.37
2019-02-28T23:13:45.956Z,29.20
2019-02-28T23:16:15.357Z,28.90
2019-02-28T23:18:44.738Z,27.53
2019-02-28T23:21:14.147Z,28.33
2019-02-28T23:23:45.083Z,24.73
2019-02-28T23:26:14.537Z,23.37
2019-02-28T23:28:53.122Z,25.37
2019-02-28T23:31:40.631Z,23.27
2019-02-28T23:34:19.132Z,23.77
2019-02-28T23:36:48.613Z,27.93
2019-02-28T23:39:22.912Z,24.13
2019-02-28T23:41:52.303Z,22.47
2019-02-28T23:44:21.670Z,22.20
2019-02-28T23:46:51.057Z,20.47
2019-02-28T23:49:20.447Z,19.07
2019-02-28T23:51:49.864Z,18.57
2019-02-28T23:54:20.806Z,25.03
2019-02-28T23:56:51.767Z,19.40
2019-02-28T23:59:22.791Z,22.30
